Time;durP1;ratioP1;P1;durP2;ratioP2;P2;SDS_P1;SDS_P2;PMS_P1;PMS_P2;Temp;Humidity;BMP_temperature;BMP_pressure;BME280_temperature;BME280_humidity;BME280_pressure;Samples;Min_cycle;Max_cycle;Signal;HPM_P1;HPM_P2
2021/05/07 00:02:10;;;;;;;12.15;5.47;;;16.10;72.40;;;;;;6117070;29;20132;-78
2021/05/07 00:05:12;;;;;;;12.30;5.63;;;16.10;72.50;;;;;;6101275;29;20063;-78
2021/05/07 00:08:13;;;;;;;10.32;5.32;;;16.00;72.30;;;;;;6132779;29;20048;-77
2021/05/07 00:11:18;;;;;;;12.10;5.50;;;16.00;72.30;;;;;;6116748;29;20036;-78
2021/05/07 00:14:19;;;;;;;12.70;5.70;;;16.00;72.40;;;;;;6116637;29;20055;-78
2021/05/07 00:17:20;;;;;;;8.98;5.10;;;16.00;72.60;;;;;;6115738;29;20042;-78
2021/05/07 00:20:21;;;;;;;11.38;5.50;;;16.00;72.70;;;;;;6131923;29;20035;-78
2021/05/07 00:23:22;;;;;;;15.98;5.53;;;16.00;72.90;;;;;;6116903;29;20119;-78
2021/05/07 00:26:23;;;;;;;9.48;5.28;;;16.00;73.00;;;;;;6116441;29;20027;-78
2021/05/07 00:29:25;;;;;;;9.25;4.75;;;16.00;73.00;;;;;;6116623;29;20075;-77
2021/05/07 00:32:26;;;;;;;11.18;5.75;;;16.00;73.10;;;;;;6133280;29;20035;-78
2021/05/07 00:35:27;;;;;;;9.60;5.10;;;16.00;73.00;;;;;;6133245;29;20062;-77
2021/05/07 00:38:28;;;;;;;10.55;5.40;;;15.90;72.90;;;;;;6118084;29;20051;-78
2021/05/07 00:41:30;;;;;;;10.20;5.55;;;16.00;73.80;;;;;;6113553;29;20031;-77
2021/05/07 00:44:32;;;;;;;8.68;4.97;;;16.00;72.90;;;;;;6119802;29;20024;-78
2021/05/07 00:47:39;;;;;;;8.07;4.32;;;16.00;72.80;;;;;;6120195;29;20031;-79
2021/05/07 00:50:43;;;;;;;5.68;3.65;;;16.00;72.80;;;;;;6136236;29;20175;-79
2021/05/07 00:53:47;;;;;;;5.28;3.50;;;16.00;73.00;;;;;;6103486;29;20039;-78
2021/05/07 00:56:48;;;;;;;7.30;3.72;;;16.00;73.00;;;;;;6105474;29;20038;-77
2021/05/07 00:59:49;;;;;;;7.93;3.72;;;16.00;73.10;;;;;;6135278;29;20086;-78
2021/05/07 01:02:51;;;;;;;4.30;2.90;;;16.00;73.10;;;;;;6117924;29;20518;-78
2021/05/07 01:05:53;;;;;;;6.75;3.30;;;16.00;73.20;;;;;;6119634;29;20055;-78
2021/05/07 01:08:54;;;;;;;4.20;2.50;;;16.00;73.20;;;;;;6120398;29;20106;-77
2021/05/07 01:11:56;;;;;;;6.20;2.47;;;16.00;73.20;;;;;;6103644;29;20538;-78
2021/05/07 01:15:12;;;;;;;3.65;2.13;;;16.00;73.40;;;;;;6135182;29;20032;-78
2021/05/07 01:18:16;;;;;;;;;;;16.10;73.40;;;;;;6121225;29;20027;-77
2021/05/07 01:21:19;;;;;;;3.22;1.25;;;16.10;73.40;;;;;;6124187;29;20231;-78
2021/05/07 01:24:24;;;;;;;3.13;1.88;;;16.10;73.20;;;;;;6134488;29;20345;-78
2021/05/07 01:27:25;;;;;;;3.15;1.52;;;16.20;73.20;;;;;;6116597;29;20054;-77
2021/05/07 01:30:32;;;;;;;3.53;1.40;;;16.20;72.90;;;;;;6119611;29;20032;-78
2021/05/07 01:33:35;;;;;;;1.58;0.80;;;16.20;72.70;;;;;;6118032;29;20082;-78
2021/05/07 01:36:36;;;;;;;0.75;0.32;;;16.30;72.50;;;;;;6118067;29;20043;-78
2021/05/07 01:39:38;;;;;;;0.63;0.32;;;16.30;71.40;;;;;;6133823;29;20032;-78
2021/05/07 01:42:40;;;;;;;0.50;0.50;;;16.40;70.40;;;;;;6118782;29;20039;-78
2021/05/07 01:45:43;;;;;;;0.20;0.20;;;16.50;69.50;;;;;;6134721;29;20111;-77
2021/05/07 01:48:45;;;;;;;0.47;0.32;;;16.50;67.80;;;;;;6118068;29;20035;-78
2021/05/07 01:51:46;;;;;;;0.20;0.20;;;16.60;66.40;;;;;;6130508;29;20074;-78
2021/05/07 01:54:48;;;;;;;0.30;0.30;;;16.70;65.30;;;;;;6114394;29;20143;-78
2021/05/07 01:57:50;;;;;;;0.15;0.10;;;16.70;64.10;;;;;;6114682;29;20047;-78
2021/05/07 02:00:51;;;;;;;0.20;0.20;;;16.80;62.80;;;;;;6098551;29;20044;-77
2021/05/07 02:03:52;;;;;;;0.85;0.30;;;16.80;62.70;;;;;;6131345;29;20044;-78
2021/05/07 02:07:03;;;;;;;0.20;0.20;;;16.90;62.30;;;;;;6114433;29;20028;-77
2021/05/07 02:10:07;;;;;;;3.33;0.40;;;16.90;62.10;;;;;;6130168;29;20438;-78
2021/05/07 02:13:11;;;;;;;0.30;0.20;;;16.90;61.90;;;;;;6115510;29;20035;-78
2021/05/07 02:16:15;;;;;;;0.43;0.30;;;17.00;61.90;;;;;;6113809;29;20043;-78
2021/05/07 02:19:19;;;;;;;0.20;0.20;;;17.00;61.80;;;;;;6112773;29;20047;-78
2021/05/07 02:22:20;;;;;;;0.50;0.17;;;17.00;61.20;;;;;;6130824;29;20034;-78
2021/05/07 02:25:23;;;;;;;0.95;0.32;;;16.90;60.80;;;;;;6114343;29;20115;-77
2021/05/07 02:28:25;;;;;;;0.55;0.20;;;16.90;60.30;;;;;;6129712;29;20099;-78
2021/05/07 02:31:26;;;;;;;0.10;0.10;;;16.90;60.30;;;;;;6098192;29;20028;-77
2021/05/07 02:34:27;;;;;;;0.10;0.10;;;16.90;59.60;;;;;;6115472;29;20043;-78
2021/05/07 02:37:29;;;;;;;0.20;0.20;;;16.90;59.60;;;;;;6135510;29;20032;-77
2021/05/07 02:40:30;;;;;;;0.32;0.32;;;16.90;59.70;;;;;;6117475;29;20051;-77
2021/05/07 02:43:32;;;;;;;0.70;0.45;;;16.90;59.80;;;;;;6117559;29;20032;-77
2021/05/07 02:46:35;;;;;;;1.10;0.50;;;16.90;60.00;;;;;;6116330;29;20110;-78
2021/05/07 02:49:37;;;;;;;0.32;0.30;;;16.90;60.30;;;;;;6114556;29;20032;-79
2021/05/07 02:52:40;;;;;;;0.65;0.40;;;16.90;60.60;;;;;;6113477;29;20028;-77
2021/05/07 02:55:42;;;;;;;0.30;0.30;;;16.80;60.80;;;;;;6113391;29;20027;-79
2021/05/07 02:58:45;;;;;;;0.45;0.40;;;16.70;61.10;;;;;;6097740;29;20046;-77
2021/05/07 03:01:46;;;;;;;0.77;0.40;;;16.70;61.20;;;;;;6100781;29;20047;-77
2021/05/07 03:04:47;;;;;;;2.38;0.32;;;16.70;61.40;;;;;;6113109;29;20032;-78
2021/05/07 03:07:49;;;;;;;1.50;0.60;;;16.60;61.60;;;;;;6113337;29;20039;-78
2021/05/07 03:10:52;;;;;;;1.63;0.28;;;16.50;61.80;;;;;;6113424;29;20055;-77
2021/05/07 03:13:53;;;;;;;0.45;0.30;;;16.40;62.30;;;;;;6113272;29;20035;-78
2021/05/07 03:16:54;;;;;;;2.65;0.30;;;16.40;62.70;;;;;;6112552;29;20036;-78
2021/05/07 03:19:55;;;;;;;2.20;0.50;;;16.30;62.80;;;;;;6129453;29;20036;-78
2021/05/07 03:22:57;;;;;;;1.63;0.88;;;16.30;63.00;;;;;;6113310;29;20444;-78
2021/05/07 03:25:58;;;;;;;1.05;0.50;;;16.20;63.10;;;;;;6130267;29;20038;-77
2021/05/07 03:28:59;;;;;;;0.50;0.38;;;16.20;63.30;;;;;;6133129;29;20107;-78
2021/05/07 03:32:00;;;;;;;3.83;0.47;;;16.20;63.50;;;;;;6118278;29;20039;-77
2021/05/07 03:35:02;;;;;;;0.70;0.60;;;16.20;63.80;;;;;;6116730;29;20367;-78
2021/05/07 03:38:04;;;;;;;2.25;0.40;;;16.10;64.00;;;;;;6117750;29;20352;-77
2021/05/07 03:41:05;;;;;;;0.32;0.32;;;16.10;64.20;;;;;;6117788;29;20039;-77
2021/05/07 03:44:07;;;;;;;1.52;0.77;;;16.10;64.40;;;;;;6116847;29;20038;-79
2021/05/07 03:47:08;;;;;;;0.68;0.47;;;16.10;64.40;;;;;;6117501;29;20095;-77
2021/05/07 03:50:10;;;;;;;0.50;0.40;;;16.10;64.40;;;;;;6116468;29;20412;-77
2021/05/07 03:53:12;;;;;;;1.00;0.63;;;16.10;64.40;;;;;;6117102;29;20130;-78
2021/05/07 03:56:14;;;;;;;2.10;0.93;;;16.10;64.40;;;;;;6132872;29;20352;-76
2021/05/07 03:59:15;;;;;;;0.65;0.50;;;16.10;64.40;;;;;;6132769;29;20082;-77
2021/05/07 04:02:16;;;;;;;2.50;0.93;;;16.20;64.50;;;;;;6116835;29;20039;-78
2021/05/07 04:05:18;;;;;;;3.35;0.80;;;16.20;64.50;;;;;;6101083;29;20027;-78
2021/05/07 04:08:22;;;;;;;1.10;0.70;;;16.20;64.40;;;;;;6132807;29;20191;-78
2021/05/07 04:12:00;;;;;;;3.17;1.13;;;16.20;64.30;;;;;;6117286;29;20040;-78
2021/05/07 04:14:51;;;;;;;1.73;0.70;;;16.30;64.50;;;;;;6131825;29;20103;-77
2021/05/07 04:17:52;;;;;;;1.42;0.85;;;16.30;64.60;;;;;;6117522;29;20031;-78
2021/05/07 04:20:53;;;;;;;1.98;0.80;;;16.30;64.70;;;;;;6115672;29;20028;-78
2021/05/07 04:23:54;;;;;;;5.38;0.57;;;16.30;64.80;;;;;;6116513;29;20038;-78
2021/05/07 04:26:55;;;;;;;4.90;1.50;;;16.30;64.80;;;;;;6116762;29;20035;-77
2021/05/07 04:29:56;;;;;;;1.02;0.80;;;16.30;64.70;;;;;;6134190;29;20039;-77
2021/05/07 04:32:57;;;;;;;2.95;0.93;;;16.40;64.80;;;;;;6116500;29;20081;-77
2021/05/07 04:35:58;;;;;;;2.22;1.00;;;16.40;64.90;;;;;;6131552;29;20138;-77
2021/05/07 04:38:59;;;;;;;1.27;0.85;;;16.40;65.00;;;;;;6102514;29;20376;-78
2021/05/07 04:42:01;;;;;;;1.52;0.70;;;16.40;65.00;;;;;;6116108;29;20036;-78
2021/05/07 04:45:02;;;;;;;1.27;0.82;;;16.40;65.00;;;;;;6116058;29;20023;-78
2021/05/07 04:48:11;;;;;;;5.25;1.00;;;16.40;65.00;;;;;;6116160;29;20055;-78
2021/05/07 04:51:11;;;;;;;;;;;16.40;65.00;;;;;;6100394;29;20074;-78
2021/05/07 04:54:12;;;;;;;1.90;1.00;;;16.50;65.00;;;;;;6115837;29;19910;-78
2021/05/07 04:57:13;;;;;;;2.65;1.02;;;16.50;65.60;;;;;;6115761;29;20066;-78
2021/05/07 05:00:16;;;;;;;1.52;1.20;;;16.50;64.90;;;;;;6115650;29;20048;-78
2021/05/07 05:03:17;;;;;;;1.77;1.05;;;16.40;65.00;;;;;;6115315;29;20490;-78
2021/05/07 05:06:18;;;;;;;1.95;0.90;;;16.40;65.10;;;;;;6132264;29;20038;-78
2021/05/07 05:09:19;;;;;;;1.52;0.80;;;16.40;65.20;;;;;;6115632;29;20040;-78
2021/05/07 05:12:21;;;;;;;1.15;0.90;;;16.40;65.30;;;;;;6132309;29;20027;-78
2021/05/07 05:15:22;;;;;;;3.47;1.25;;;16.40;65.30;;;;;;6115122;29;20036;-79
2021/05/07 05:18:31;;;;;;;2.58;0.80;;;16.40;65.40;;;;;;6131298;29;20032;-79
2021/05/07 05:21:33;;;;;;;2.05;0.93;;;16.40;65.50;;;;;;6114924;29;20031;-78
2021/05/07 05:24:36;;;;;;;0.55;0.50;;;16.40;65.50;;;;;;6131110;29;20503;-79
2021/05/07 05:27:37;;;;;;;1.05;0.80;;;16.40;65.60;;;;;;6130744;29;20038;-79
2021/05/07 05:30:38;;;;;;;1.35;0.82;;;16.40;65.60;;;;;;6115205;29;20032;-78
2021/05/07 05:33:39;;;;;;;1.63;1.02;;;16.50;65.60;;;;;;6114542;29;20043;-78
2021/05/07 05:36:46;;;;;;;1.88;1.20;;;16.50;65.60;;;;;;6116240;29;20031;-78
2021/05/07 05:39:47;;;;;;;1.20;1.10;;;16.50;65.50;;;;;;6132474;29;20032;-78
2021/05/07 05:42:48;;;;;;;3.13;1.35;;;16.50;65.40;;;;;;6131329;29;20045;-78
2021/05/07 05:45:50;;;;;;;2.45;1.50;;;16.50;65.40;;;;;;6115088;29;20043;-78
2021/05/07 05:48:51;;;;;;;2.33;1.30;;;16.50;65.40;;;;;;6115203;29;20039;-79
2021/05/07 05:51:55;;;;;;;2.78;1.48;;;16.50;65.50;;;;;;6131239;29;20059;-77
2021/05/07 05:54:59;;;;;;;7.57;1.73;;;16.50;65.60;;;;;;6133096;29;20032;-79
2021/05/07 05:58:00;;;;;;;3.70;1.58;;;16.50;65.70;;;;;;6133108;29;20455;-78
2021/05/07 06:01:01;;;;;;;3.83;1.58;;;16.50;65.90;;;;;;6117132;29;20149;-77
2021/05/07 06:04:03;;;;;;;2.50;1.52;;;16.50;66.00;;;;;;6107057;29;20067;-77
2021/05/07 06:07:04;;;;;;;3.38;2.13;;;16.50;66.10;;;;;;6107870;29;20091;-78
2021/05/07 06:10:06;;;;;;;4.40;2.00;;;16.60;66.10;;;;;;6108373;29;20028;-80
2021/05/07 06:13:08;;;;;;;5.70;2.25;;;16.60;66.00;;;;;;6102822;29;20066;-77
2021/05/07 06:16:09;;;;;;;3.72;2.00;;;16.70;66.00;;;;;;6109815;29;20099;-78
2021/05/07 06:19:10;;;;;;;4.47;2.33;;;16.80;65.90;;;;;;6084862;29;20037;-79
2021/05/07 06:22:12;;;;;;;3.65;1.88;;;16.90;65.80;;;;;;6081045;29;20482;-79
2021/05/07 06:25:16;;;;;;;12.77;1.98;;;16.90;65.60;;;;;;6088155;29;20039;-79
2021/05/07 06:28:18;;;;;;;4.88;1.83;;;17.00;65.60;;;;;;6093148;29;20036;-78
2021/05/07 06:31:19;;;;;;;4.22;1.85;;;17.00;65.50;;;;;;6113092;29;20043;-79
2021/05/07 06:34:20;;;;;;;5.07;2.08;;;17.10;65.50;;;;;;6107422;29;20408;-78
2021/05/07 06:37:22;;;;;;;3.47;2.05;;;17.10;65.30;;;;;;6096511;29;20051;-78
2021/05/07 06:40:23;;;;;;;4.25;1.77;;;17.20;65.30;;;;;;6126533;29;20127;-76
2021/05/07 06:43:25;;;;;;;2.25;1.77;;;17.30;65.10;;;;;;6116714;29;20054;-78
2021/05/07 06:46:26;;;;;;;4.03;2.13;;;17.50;64.90;;;;;;6122288;29;20047;-78
2021/05/07 06:49:29;;;;;;;3.47;2.00;;;17.70;64.60;;;;;;6126193;29;20048;-79
2021/05/07 06:52:32;;;;;;;4.47;2.35;;;17.90;64.00;;;;;;6113045;29;20020;-79
2021/05/07 06:55:33;;;;;;;5.40;1.70;;;18.00;63.50;;;;;;6125047;29;20037;-78
2021/05/07 06:58:38;;;;;;;6.20;1.95;;;18.00;63.40;;;;;;6121366;29;20044;-79
2021/05/07 07:01:41;;;;;;;4.45;1.77;;;17.90;63.40;;;;;;6114987;29;20554;-78
2021/05/07 07:04:42;;;;;;;2.70;1.67;;;18.00;63.20;;;;;;6146662;29;20046;-78
2021/05/07 07:07:45;;;;;;;4.03;2.08;;;18.00;63.10;;;;;;6144931;29;20091;-78
2021/05/07 07:10:46;;;;;;;5.15;1.90;;;18.00;62.80;;;;;;6144774;29;20086;-78
2021/05/07 07:13:47;;;;;;;2.53;1.70;;;18.00;63.00;;;;;;6128048;29;20367;-78
2021/05/07 07:16:49;;;;;;;14.45;1.90;;;18.00;63.40;;;;;;6144276;29;20036;-78
2021/05/07 07:19:50;;;;;;;3.72;2.17;;;18.10;63.30;;;;;;6128136;29;20032;-80
2021/05/07 07:22:51;;;;;;;6.88;2.47;;;18.10;63.20;;;;;;6128769;29;20027;-79
2021/05/07 07:25:53;;;;;;;5.10;1.92;;;18.10;63.10;;;;;;6144246;29;20124;-79
2021/05/07 07:28:54;;;;;;;5.03;2.33;;;18.10;63.20;;;;;;6128609;29;20067;-78
2021/05/07 07:31:55;;;;;;;4.63;2.92;;;18.10;63.10;;;;;;6127832;29;20039;-77
2021/05/07 07:35:01;;;;;;;9.23;3.63;;;18.20;63.10;;;;;;6143878;29;20035;-77
2021/05/07 07:38:02;;;;;;;4.18;2.60;;;18.10;62.90;;;;;;6126531;29;20495;-78
2021/05/07 07:41:03;;;;;;;8.95;2.80;;;18.10;63.00;;;;;;6126870;29;20099;-78
2021/05/07 07:44:04;;;;;;;4.70;2.53;;;18.10;63.40;;;;;;6128389;29;20028;-78
2021/05/07 07:47:06;;;;;;;5.53;2.50;;;18.10;63.60;;;;;;6113146;29;20090;-78
2021/05/07 07:50:18;;;;;;;4.00;2.45;;;18.10;63.80;;;;;;6136807;29;20047;-78
2021/05/07 07:53:20;;;;;;;6.13;2.55;;;18.20;63.80;;;;;;6131736;29;20044;-77
2021/05/07 07:56:21;;;;;;;8.15;2.75;;;18.30;63.60;;;;;;6110658;29;20032;-78
2021/05/07 07:59:22;;;;;;;4.10;1.95;;;18.50;63.60;;;;;;6124977;29;20042;-78
2021/05/07 08:02:26;;;;;;;5.97;1.88;;;18.60;62.90;;;;;;6111475;29;20144;-78
2021/05/07 08:05:27;;;;;;;3.58;1.88;;;18.80;62.20;;;;;;6079060;29;20043;-78
2021/05/07 08:08:28;;;;;;;1.98;1.17;;;19.00;61.70;;;;;;6077977;29;20040;-78
2021/05/07 08:11:29;;;;;;;5.65;1.10;;;19.10;61.00;;;;;;6094253;29;20028;-78
2021/05/07 08:14:30;;;;;;;6.80;1.30;;;19.20;59.70;;;;;;6092545;29;20040;-78
2021/05/07 08:17:32;;;;;;;1.60;0.88;;;19.30;59.60;;;;;;6093717;29;20047;-78
2021/05/07 08:20:33;;;;;;;1.23;0.93;;;19.40;59.10;;;;;;6095295;29;20063;-79
2021/05/07 08:23:35;;;;;;;5.60;0.90;;;19.30;58.60;;;;;;6097443;29;20400;-78
2021/05/07 08:26:36;;;;;;;1.88;1.05;;;19.20;58.70;;;;;;6096670;29;20037;-78
2021/05/07 08:29:38;;;;;;;4.22;0.85;;;19.20;58.70;;;;;;6112718;29;20131;-79
2021/05/07 08:32:39;;;;;;;1.52;0.70;;;19.20;58.60;;;;;;6095469;29;20040;-78
2021/05/07 08:35:40;;;;;;;5.65;1.00;;;19.20;58.60;;;;;;6094612;29;20037;-78
2021/05/07 08:38:43;;;;;;;1.27;0.85;;;19.20;58.70;;;;;;6077154;29;20036;-77
2021/05/07 08:41:44;;;;;;;2.78;1.05;;;19.20;58.70;;;;;;6109229;29;20039;-79
2021/05/07 08:44:46;;;;;;;3.10;0.77;;;19.20;58.50;;;;;;6092847;29;20040;-79
2021/05/07 08:47:52;;;;;;;1.10;0.60;;;19.30;58.40;;;;;;6078124;29;20032;-78
2021/05/07 08:50:54;;;;;;;0.93;0.70;;;19.30;58.20;;;;;;6109790;29;20032;-78
2021/05/07 08:53:55;;;;;;;0.60;0.60;;;19.20;57.90;;;;;;6077608;29;20060;-79
2021/05/07 08:56:57;;;;;;;1.05;0.50;;;19.10;57.80;;;;;;6090744;29;20056;-79
2021/05/07 08:59:58;;;;;;;0.70;0.70;;;18.90;58.00;;;;;;6094501;29;20024;-79
2021/05/07 09:03:13;;;;;;;0.38;0.32;;;18.80;57.90;;;;;;6094637;29;20184;-78
2021/05/07 09:06:18;;;;;;;1.52;0.65;;;18.60;57.90;;;;;;6094650;29;20036;-77
2021/05/07 09:09:29;;;;;;;1.77;0.60;;;18.50;58.30;;;;;;6075818;29;20099;-78
2021/05/07 09:12:33;;;;;;;1.23;0.80;;;18.50;58.40;;;;;;6081910;29;20032;-78
2021/05/07 09:15:38;;;;;;;1.55;0.63;;;18.40;58.60;;;;;;6083814;29;20041;-78
2021/05/07 09:18:51;;;;;;;0.50;0.43;;;18.50;58.70;;;;;;6083233;29;20032;-77
2021/05/07 09:21:54;;;;;;;2.97;0.70;;;18.40;58.80;;;;;;6098940;29;20195;-77
2021/05/07 09:25:13;;;;;;;2.15;1.17;;;18.40;58.90;;;;;;6093217;29;20060;-77
2021/05/07 09:28:17;;;;;;;21.35;7.75;;;18.30;59.30;;;;;;6071054;29;20032;-77
2021/05/07 09:31:19;;;;;;;14.15;6.50;;;18.40;59.50;;;;;;6093369;29;20040;-77
2021/05/07 09:34:22;;;;;;;2.38;1.35;;;18.40;59.60;;;;;;6092592;29;20139;-80
2021/05/07 09:37:23;;;;;;;5.53;3.08;;;18.50;59.80;;;;;;6084186;29;20100;-78
2021/05/07 09:40:25;;;;;;;10.48;5.00;;;18.50;59.70;;;;;;6084648;29;20024;-79
2021/05/07 09:43:30;;;;;;;28.38;15.70;;;18.70;59.70;;;;;;6100132;29;20494;-78
2021/05/07 09:46:34;;;;;;;3.65;2.38;;;18.80;59.70;;;;;;6084547;29;20029;-78
2021/05/07 09:49:35;;;;;;;5.05;1.98;;;18.90;59.40;;;;;;6067113;29;20518;-79
2021/05/07 09:52:36;;;;;;;2.90;1.33;;;19.00;59.30;;;;;;6086316;29;20041;-77
2021/05/07 09:55:38;;;;;;;0.90;0.70;;;19.00;59.20;;;;;;6083477;29;20033;-78
2021/05/07 09:58:40;;;;;;;1.60;0.75;;;19.10;59.20;;;;;;6083460;29;20079;-79
2021/05/07 10:01:48;;;;;;;2.42;1.00;;;19.10;59.10;;;;;;6095088;29;20171;-78
2021/05/07 10:04:49;;;;;;;1.80;0.60;;;19.10;58.90;;;;;;6115009;29;20045;-79
2021/05/07 10:07:51;;;;;;;3.60;1.17;;;19.10;58.60;;;;;;6133700;29;20035;-79
2021/05/07 10:10:58;;;;;;;7.07;2.47;;;19.00;58.50;;;;;;6114883;29;20036;-79
2021/05/07 10:14:07;;;;;;;4.85;0.90;;;19.00;58.90;;;;;;6120816;29;20138;-79
2021/05/07 10:17:10;;;;;;;0.90;0.65;;;18.90;58.80;;;;;;6128668;29;20078;-78
2021/05/07 10:20:28;;;;;;;1.35;0.90;;;19.00;58.60;;;;;;6128914;29;20535;-79
2021/05/07 10:23:31;;;;;;;2.05;0.80;;;19.10;58.50;;;;;;6116041;29;20066;-79
2021/05/07 10:26:53;;;;;;;1.95;0.95;;;19.40;57.80;;;;;;6130443;29;20042;-78
2021/05/07 10:29:59;;;;;;;0.52;0.40;;;19.70;57.20;;;;;;6098367;29;20043;-78
2021/05/07 10:33:02;;;;;;;2.35;0.65;;;20.00;56.00;;;;;;6137223;29;20142;-79
2021/05/07 10:36:04;;;;;;;0.40;0.30;;;20.20;54.80;;;;;;6135834;29;20028;-79
2021/05/07 10:39:28;;;;;;;0.40;0.20;;;20.40;53.00;;;;;;6130688;29;20059;-79
2021/05/07 10:42:29;;;;;;;2.58;0.85;;;20.50;52.60;;;;;;6118919;29;20027;-79
2021/05/07 10:45:46;;;;;;;0.75;0.40;;;20.40;51.80;;;;;;6124078;29;20031;-80
2021/05/07 10:48:51;;;;;;;1.45;0.30;;;20.20;51.40;;;;;;6104244;29;20059;-78
2021/05/07 10:52:49;;;;;;;0.52;0.40;;;19.90;52.10;;;;;;6114072;29;20035;-77
2021/05/07 10:55:54;;;;;;;;;;;19.70;52.80;;;;;;6124161;29;20092;-78
2021/05/07 10:58:55;;;;;;;2.65;0.68;;;19.60;53.60;;;;;;6121318;29;19921;-80
2021/05/07 11:01:59;;;;;;;3.13;0.60;;;19.60;53.20;;;;;;6123979;29;20059;-79
2021/05/07 11:05:02;;;;;;;0.95;0.52;;;19.80;52.90;;;;;;6120150;29;20473;-79
2021/05/07 11:11:11;;;;;;;0.82;0.40;;;20.30;51.60;;;;;;6152497;29;20078;-79
2021/05/07 11:14:25;;;;;;;1.42;0.60;;;20.70;50.50;;;;;;6150698;29;20039;-79
2021/05/07 11:17:32;;;;;;;2.38;0.40;;;21.30;49.30;;;;;;6131160;29;20031;-78
2021/05/07 11:20:39;;;;;;;1.63;0.50;;;22.20;47.50;;;;;;6124586;29;20482;-79
2021/05/07 11:23:41;;;;;;;1.70;0.38;;;23.10;45.90;;;;;;6102631;29;20435;-79
2021/05/07 11:26:42;;;;;;;0.28;0.28;;;24.00;43.90;;;;;;6124944;29;20091;-78
2021/05/07 11:29:45;;;;;;;1.85;0.52;;;24.60;41.00;;;;;;6119572;29;20055;-78
2021/05/07 11:32:47;;;;;;;0.90;0.70;;;24.80;39.10;;;;;;6131260;29;20067;-78
2021/05/07 11:36:08;;;;;;;1.50;0.50;;;24.90;39.30;;;;;;6125173;29;20039;-78
2021/05/07 11:39:16;;;;;;;0.63;0.43;;;24.90;37.50;;;;;;6139290;29;20115;-78
2021/05/07 11:42:30;;;;;;;0.20;0.20;;;24.60;37.90;;;;;;6141171;29;20028;-77
2021/05/07 11:45:31;;;;;;;0.93;0.40;;;24.20;37.90;;;;;;6138299;29;20024;-78
2021/05/07 11:48:37;;;;;;;3.15;0.50;;;23.80;38.40;;;;;;6127757;29;20478;-78
2021/05/07 11:51:47;;;;;;;3.85;0.50;;;23.60;39.40;;;;;;6129897;29;20039;-79
2021/05/07 11:54:48;;;;;;;0.77;0.40;;;23.60;40.70;;;;;;6130329;29;20119;-77
2021/05/07 11:58:02;;;;;;;0.40;0.38;;;23.80;41.90;;;;;;6130255;29;20107;-78
2021/05/07 12:01:10;;;;;;;1.27;0.57;;;24.20;42.00;;;;;;6140418;29;20031;-80
2021/05/07 12:04:11;;;;;;;0.63;0.50;;;24.80;41.30;;;;;;6134147;29;20043;-79
2021/05/07 12:07:23;;;;;;;1.20;0.35;;;25.40;40.50;;;;;;6157711;29;20090;-78
2021/05/07 12:10:27;;;;;;;1.35;0.50;;;26.10;39.30;;;;;;6158433;29;20167;-78
2021/05/07 12:13:28;;;;;;;2.33;0.55;;;26.60;36.50;;;;;;6141127;29;20028;-79
2021/05/07 12:16:29;;;;;;;7.13;0.40;;;27.20;35.80;;;;;;6142193;29;20513;-78
2021/05/07 12:19:30;;;;;;;2.38;1.00;;;27.70;33.30;;;;;;6145746;29;20156;-78
2021/05/07 12:22:35;;;;;;;1.45;0.32;;;28.20;32.00;;;;;;6142828;29;20036;-79
2021/05/07 12:25:42;;;;;;;3.00;0.50;;;28.50;30.50;;;;;;6149407;29;20036;-80
2021/05/07 12:28:58;;;;;;;2.08;0.60;;;28.70;29.90;;;;;;6153813;29;20031;-79
2021/05/07 12:32:07;;;;;;;2.47;0.98;;;28.80;29.70;;;;;;6141700;29;20074;-78
2021/05/07 12:35:09;;;;;;;1.40;0.52;;;28.80;29.00;;;;;;6145752;29;20035;-78
2021/05/07 12:38:28;;;;;;;1.13;0.38;;;29.20;28.30;;;;;;6132055;29;20058;-78
2021/05/07 12:41:29;;;;;;;0.20;0.20;;;29.20;28.40;;;;;;6148497;29;20028;-78
2021/05/07 12:44:30;;;;;;;0.70;0.35;;;29.20;28.30;;;;;;6140046;29;20051;-79
2021/05/07 12:47:31;;;;;;;0.30;0.30;;;29.10;28.20;;;;;;6138372;29;20031;-79
2021/05/07 12:50:33;;;;;;;1.00;0.30;;;29.00;28.20;;;;;;6151374;29;20032;-77
2021/05/07 12:53:37;;;;;;;1.67;0.40;;;29.60;27.90;;;;;;6147772;29;20118;-78
2021/05/07 12:56:42;;;;;;;2.38;0.40;;;30.30;26.60;;;;;;6137683;29;20070;-80
2021/05/07 12:59:43;;;;;;;1.17;0.55;;;30.80;25.90;;;;;;6136796;29;20031;-79
2021/05/07 13:02:44;;;;;;;2.65;0.35;;;31.50;25.60;;;;;;6136794;29;20027;-79
2021/05/07 13:05:46;;;;;;;1.20;0.40;;;31.60;25.00;;;;;;6141866;29;20039;-77
2021/05/07 13:08:47;;;;;;;3.00;0.50;;;32.10;24.80;;;;;;6155490;29;20126;-79
2021/05/07 13:11:48;;;;;;;0.63;0.45;;;32.70;24.00;;;;;;6149633;29;20027;-79
2021/05/07 13:14:49;;;;;;;1.25;0.40;;;33.20;23.40;;;;;;6131834;29;20061;-79
2021/05/07 13:17:51;;;;;;;0.75;0.40;;;33.80;22.60;;;;;;6166209;29;20070;-79
2021/05/07 13:20:52;;;;;;;0.82;0.40;;;33.90;22.40;;;;;;6137166;29;20023;-79
2021/05/07 13:23:53;;;;;;;2.55;0.52;;;34.00;21.90;;;;;;6131525;29;20458;-79
2021/05/07 13:26:56;;;;;;;1.27;0.47;;;33.70;22.10;;;;;;6143089;29;20031;-79
2021/05/07 13:29:57;;;;;;;0.63;0.40;;;33.50;22.30;;;;;;6156771;29;20031;-79
2021/05/07 13:32:59;;;;;;;1.35;0.43;;;33.20;22.50;;;;;;6148565;29;20477;-78
2021/05/07 13:36:00;;;;;;;0.40;0.40;;;33.40;22.70;;;;;;6127766;29;20032;-79
2021/05/07 13:39:03;;;;;;;0.43;0.30;;;34.50;21.90;;;;;;6136801;29;20093;-78
2021/05/07 13:42:05;;;;;;;3.28;0.60;;;35.80;21.20;;;;;;6129719;29;20047;-78
2021/05/07 13:45:09;;;;;;;1.05;0.52;;;37.00;20.30;;;;;;6135874;29;20055;-78
2021/05/07 13:48:10;;;;;;;1.63;0.57;;;37.80;19.80;;;;;;6134373;29;20135;-78
2021/05/07 13:51:11;;;;;;;1.35;0.40;;;38.50;19.50;;;;;;6139162;29;20466;-78
2021/05/07 13:54:12;;;;;;;2.47;0.75;;;38.80;18.60;;;;;;6123208;29;20086;-79
2021/05/07 13:57:14;;;;;;;1.67;0.75;;;37.40;19.10;;;;;;6123300;29;20035;-79
2021/05/07 14:00:16;;;;;;;3.42;0.52;;;35.70;19.90;;;;;;6121358;29;20122;-78
2021/05/07 14:03:17;;;;;;;3.20;0.60;;;34.10;21.00;;;;;;6150154;29;20027;-79
2021/05/07 14:06:18;;;;;;;1.88;0.47;;;32.90;21.60;;;;;;6127644;29;20078;-78
2021/05/07 14:09:19;;;;;;;1.95;0.65;;;32.20;21.60;;;;;;6119340;29;20074;-78
2021/05/07 14:12:21;;;;;;;2.78;0.63;;;30.90;22.90;;;;;;6131893;29;20047;-79
2021/05/07 14:15:22;;;;;;;3.00;0.60;;;29.40;25.60;;;;;;6132451;29;20060;-78
2021/05/07 14:18:23;;;;;;;2.30;0.70;;;28.10;28.20;;;;;;6123511;29;20135;-78
2021/05/07 14:21:24;;;;;;;2.40;0.63;;;26.80;30.10;;;;;;6123798;29;20061;-78
2021/05/07 14:24:25;;;;;;;1.85;0.68;;;25.80;31.80;;;;;;6121166;29;20032;-78
2021/05/07 14:27:27;;;;;;;1.67;0.77;;;24.90;33.10;;;;;;6133222;29;20040;-79
2021/05/07 14:30:29;;;;;;;1.15;0.50;;;24.20;34.50;;;;;;6127217;29;20036;-80
2021/05/07 14:33:30;;;;;;;1.55;0.60;;;23.50;35.80;;;;;;6114886;29;20047;-78
2021/05/07 14:36:31;;;;;;;1.83;0.70;;;22.90;36.70;;;;;;6130969;29;20116;-78
2021/05/07 14:39:35;;;;;;;1.75;0.50;;;22.60;37.30;;;;;;6128366;29;20067;-78
2021/05/07 14:42:37;;;;;;;3.08;0.50;;;22.50;37.50;;;;;;6140888;29;20028;-78
2021/05/07 14:45:41;;;;;;;2.85;0.40;;;22.70;36.80;;;;;;6119848;29;20027;-78
2021/05/07 14:48:42;;;;;;;2.72;0.43;;;23.30;35.80;;;;;;6130138;29;20046;-78
2021/05/07 14:51:43;;;;;;;4.00;0.60;;;23.70;35.10;;;;;;6129221;29;20028;-78
2021/05/07 14:54:45;;;;;;;3.58;0.60;;;23.90;34.70;;;;;;6130169;29;20027;-80
2021/05/07 14:57:46;;;;;;;1.58;0.50;;;24.00;34.40;;;;;;6121938;29;20051;-78
2021/05/07 15:00:48;;;;;;;0.40;0.40;;;24.10;33.90;;;;;;6109659;29;20064;-80
2021/05/07 15:03:49;;;;;;;1.45;0.73;;;24.20;33.60;;;;;;6129201;29;20407;-79
2021/05/07 15:06:50;;;;;;;2.03;0.60;;;24.30;33.70;;;;;;6116577;29;20036;-79
2021/05/07 15:09:52;;;;;;;1.33;0.43;;;24.40;33.30;;;;;;6109162;29;20238;-78
2021/05/07 15:12:54;;;;;;;0.82;0.40;;;24.50;33.20;;;;;;6128874;29;20052;-78
2021/05/07 15:15:55;;;;;;;4.20;0.47;;;24.50;33.00;;;;;;6128401;29;20036;-78
2021/05/07 15:18:57;;;;;;;1.63;0.50;;;24.50;32.60;;;;;;6136827;29;20040;-79
2021/05/07 15:21:58;;;;;;;5.03;0.60;;;24.70;32.30;;;;;;6134408;29;20063;-79
2021/05/07 15:24:59;;;;;;;0.40;0.40;;;25.60;31.20;;;;;;6125624;29;20467;-77
2021/05/07 15:28:00;;;;;;;1.45;0.50;;;27.50;29.00;;;;;;6127404;29;20035;-81
2021/05/07 15:31:01;;;;;;;2.65;0.70;;;29.40;26.90;;;;;;6125617;29;20063;-79
2021/05/07 15:34:06;;;;;;;2.17;0.75;;;30.90;25.30;;;;;;6129781;29;20058;-79
2021/05/07 15:37:08;;;;;;;5.68;0.85;;;32.10;23.70;;;;;;6121156;29;20055;-80
2021/05/07 15:40:10;;;;;;;1.52;0.60;;;32.70;22.50;;;;;;6132384;29;20028;-79
2021/05/07 15:43:12;;;;;;;2.65;0.45;;;32.80;22.20;;;;;;6110048;29;20036;-77
2021/05/07 15:46:14;;;;;;;2.15;0.50;;;32.00;22.90;;;;;;6097610;29;20028;-79
2021/05/07 15:49:18;;;;;;;0.30;0.30;;;30.80;24.00;;;;;;6119538;29;21050;-79
2021/05/07 15:52:19;;;;;;;4.32;1.35;;;30.10;24.80;;;;;;6135274;29;20074;-79
2021/05/07 15:55:21;;;;;;;1.00;0.55;;;29.60;25.30;;;;;;6121216;29;20036;-78
2021/05/07 15:58:22;;;;;;;1.15;0.70;;;29.20;25.70;;;;;;6132636;29;20036;-79